Time;durP1;ratioP1;P1;durP2;ratioP2;P2;SDS_P1;SDS_P2;PMS_P1;PMS_P2;Temp;Humidity;BMP_temperature;BMP_pressure;BME280_temperature;BME280_humidity;BME280_pressure;Samples;Min_cycle;Max_cycle;Signal;HPM_P1;HPM_P2
2021/05/04 00:02:18;;;;;;;13.30;4.43;;;13.70;65.20;;;;;;5027321;28;20136;-62
2021/05/04 00:04:43;;;;;;;9.93;4.18;;;13.70;65.30;;;;;;5023547;28;20052;-60
2021/05/04 00:07:09;;;;;;;9.13;4.80;;;13.60;65.30;;;;;;5023139;28;20056;-62
2021/05/04 00:09:34;;;;;;;15.20;4.72;;;13.70;65.40;;;;;;5023988;28;20393;-62
2021/05/04 00:12:00;;;;;;;11.65;4.57;;;13.60;65.40;;;;;;5025905;28;20112;-63
2021/05/04 00:14:27;;;;;;;9.27;5.25;;;13.60;65.50;;;;;;5037218;28;20084;-61
2021/05/04 00:16:53;;;;;;;9.25;4.65;;;13.60;65.50;;;;;;5023572;28;20021;-61
2021/05/04 00:19:18;;;;;;;11.40;4.78;;;13.50;65.40;;;;;;5020345;28;20041;-62
2021/05/04 00:21:44;;;;;;;9.00;4.95;;;13.50;65.40;;;;;;5026274;28;20037;-62
2021/05/04 00:24:09;;;;;;;11.10;4.45;;;13.60;65.60;;;;;;5039980;28;20308;-62
2021/05/04 00:26:35;;;;;;;7.65;4.78;;;13.50;65.50;;;;;;5025096;28;20385;-62
2021/05/04 00:29:00;;;;;;;13.55;5.22;;;13.50;65.60;;;;;;5024623;28;20092;-60
2021/05/04 00:31:26;;;;;;;8.27;4.10;;;13.50;65.70;;;;;;5021031;28;20033;-63
2021/05/04 00:33:53;;;;;;;7.82;4.80;;;13.50;65.60;;;;;;5040088;28;20056;-61
2021/05/04 00:36:18;;;;;;;5.95;4.70;;;13.50;65.70;;;;;;5021987;28;20057;-61
2021/05/04 00:38:44;;;;;;;7.55;4.38;;;13.40;65.70;;;;;;5024242;28;20556;-61
2021/05/04 00:41:09;;;;;;;5.72;4.20;;;13.40;65.70;;;;;;5025956;28;20127;-62
2021/05/04 00:43:35;;;;;;;7.38;4.60;;;13.40;65.70;;;;;;5024006;28;20144;-62
2021/05/04 00:46:00;;;;;;;6.13;4.40;;;13.40;65.80;;;;;;5020379;28;20103;-61
2021/05/04 00:48:28;;;;;;;6.28;4.38;;;13.40;65.80;;;;;;5022010;28;20144;-60
2021/05/04 00:50:53;;;;;;;7.90;4.57;;;13.40;65.80;;;;;;5040242;28;20060;-61
2021/05/04 00:53:19;;;;;;;8.13;4.13;;;13.40;65.90;;;;;;5041179;28;20034;-61
2021/05/04 00:55:44;;;;;;;10.25;5.03;;;13.30;65.80;;;;;;5021674;28;20073;-63
2021/05/04 00:58:11;;;;;;;7.82;4.47;;;13.30;65.80;;;;;;5023410;28;20516;-61
2021/05/04 01:00:38;;;;;;;9.75;4.13;;;13.30;65.80;;;;;;5022148;28;20036;-61
2021/05/04 01:03:03;;;;;;;10.00;4.70;;;13.30;65.90;;;;;;5024088;28;20022;-61
2021/05/04 01:05:29;;;;;;;9.25;4.35;;;13.30;66.00;;;;;;5022744;28;20044;-63
2021/05/04 01:07:54;;;;;;;7.93;4.88;;;13.20;65.90;;;;;;5038759;28;20044;-62
2021/05/04 01:10:20;;;;;;;6.20;4.40;;;13.20;65.90;;;;;;5023652;28;20061;-61
2021/05/04 01:12:46;;;;;;;6.93;4.47;;;13.20;66.00;;;;;;5029937;28;20044;-61
2021/05/04 01:15:11;;;;;;;5.80;3.67;;;13.20;66.00;;;;;;5006435;28;20025;-62
2021/05/04 01:17:37;;;;;;;6.43;3.65;;;13.20;66.10;;;;;;5038977;28;20037;-61
2021/05/04 01:20:03;;;;;;;7.70;3.80;;;13.10;66.10;;;;;;5024695;28;20045;-62
2021/05/04 01:22:29;;;;;;;5.78;3.95;;;13.10;66.10;;;;;;5024245;28;20059;-62
2021/05/04 01:24:54;;;;;;;5.80;3.55;;;13.10;66.10;;;;;;5020586;28;20053;-62
2021/05/04 01:27:20;;;;;;;7.38;4.07;;;13.10;66.00;;;;;;5019917;28;20046;-61
2021/05/04 01:29:46;;;;;;;7.90;4.40;;;13.10;66.10;;;;;;5022535;28;20022;-62
2021/05/04 01:32:12;;;;;;;6.28;3.83;;;13.10;66.10;;;;;;5024281;28;20061;-61
2021/05/04 01:34:38;;;;;;;7.68;4.05;;;13.10;66.10;;;;;;5024627;28;20112;-61
2021/05/04 01:37:03;;;;;;;4.22;3.63;;;13.10;66.10;;;;;;5018217;28;20468;-60
2021/05/04 01:39:49;;;;;;;4.57;3.53;;;13.00;66.10;;;;;;5020153;28;20560;-61
2021/05/04 01:42:15;;;;;;;5.57;3.40;;;13.00;66.10;;;;;;5022762;28;20029;-61
2021/05/04 01:44:41;;;;;;;5.45;3.90;;;13.00;66.00;;;;;;5023193;28;20411;-61
2021/05/04 01:47:07;;;;;;;7.93;4.55;;;13.00;66.10;;;;;;5022817;28;20046;-61
2021/05/04 01:49:32;;;;;;;6.85;4.40;;;13.00;66.10;;;;;;5021452;28;20136;-61
2021/05/04 01:51:58;;;;;;;7.38;4.53;;;13.00;66.10;;;;;;5022023;28;20044;-62
2021/05/04 01:54:24;;;;;;;5.53;4.00;;;13.00;66.10;;;;;;5020144;28;20041;-61
2021/05/04 01:56:51;;;;;;;9.38;4.30;;;13.00;66.10;;;;;;5022334;28;20555;-61
2021/05/04 01:59:16;;;;;;;8.93;4.25;;;13.00;66.20;;;;;;5023497;28;20053;-60
2021/05/04 02:01:42;;;;;;;9.93;4.40;;;12.90;66.10;;;;;;5021783;28;20546;-61
2021/05/04 02:04:07;;;;;;;6.22;3.85;;;12.90;66.20;;;;;;5022061;28;20128;-62
2021/05/04 02:06:33;;;;;;;8.32;4.13;;;12.90;66.20;;;;;;5020713;28;20217;-61
2021/05/04 02:08:58;;;;;;;6.15;4.10;;;12.90;66.20;;;;;;5022886;28;20040;-61
2021/05/04 02:11:24;;;;;;;7.18;4.22;;;12.90;66.20;;;;;;5034785;28;20033;-60
2021/05/04 02:13:49;;;;;;;5.72;3.90;;;12.90;66.20;;;;;;5016382;28;20111;-60
2021/05/04 02:16:15;;;;;;;7.70;3.72;;;12.90;66.30;;;;;;5032942;28;20409;-61
2021/05/04 02:18:41;;;;;;;5.63;4.05;;;12.90;66.20;;;;;;5018364;28;20046;-61
2021/05/04 02:21:06;;;;;;;9.68;3.90;;;12.80;66.20;;;;;;5017677;28;20033;-62
2021/05/04 02:23:32;;;;;;;8.13;3.63;;;12.80;66.10;;;;;;5036399;28;20044;-61
2021/05/04 02:25:58;;;;;;;7.22;3.75;;;12.80;66.10;;;;;;5018665;28;20032;-61
2021/05/04 02:28:23;;;;;;;5.40;3.70;;;12.80;66.20;;;;;;5020028;28;20091;-61
2021/05/04 02:30:49;;;;;;;6.10;4.00;;;12.80;66.20;;;;;;5018253;28;20955;-61
2021/05/04 02:33:14;;;;;;;7.00;3.67;;;12.80;66.30;;;;;;5017874;28;20037;-62
2021/05/04 02:35:40;;;;;;;7.55;3.88;;;12.80;66.30;;;;;;5018014;28;20038;-61
2021/05/04 02:38:05;;;;;;;5.88;3.53;;;12.70;66.40;;;;;;5016316;28;20429;-60
2021/05/04 02:40:31;;;;;;;4.68;3.60;;;12.80;66.50;;;;;;5019441;28;20072;-62
2021/05/04 02:42:56;;;;;;;8.13;3.67;;;12.70;66.50;;;;;;5014873;28;20057;-63
2021/05/04 02:45:22;;;;;;;7.35;3.85;;;12.70;66.50;;;;;;5018583;28;20396;-61
2021/05/04 02:47:47;;;;;;;8.70;3.60;;;12.80;66.60;;;;;;5015321;28;20489;-61
2021/05/04 02:50:13;;;;;;;6.18;3.88;;;12.70;66.60;;;;;;5016164;28;20537;-61
2021/05/04 02:52:39;;;;;;;8.38;3.22;;;12.70;66.70;;;;;;5018900;28;20440;-61
2021/05/04 02:55:05;;;;;;;7.22;3.75;;;12.70;66.70;;;;;;5027010;28;20051;-61
2021/05/04 02:57:31;;;;;;;6.93;3.67;;;12.70;66.80;;;;;;5032306;28;20056;-62
2021/05/04 02:59:57;;;;;;;6.03;3.80;;;12.70;66.80;;;;;;5002519;28;20053;-61
2021/05/04 03:02:22;;;;;;;8.18;3.47;;;12.70;66.70;;;;;;5032712;28;20052;-62
2021/05/04 03:04:48;;;;;;;6.32;3.53;;;12.60;66.70;;;;;;5018283;28;20094;-61
2021/05/04 03:07:13;;;;;;;5.15;3.55;;;12.70;66.70;;;;;;5013270;28;20088;-60
2021/05/04 03:09:39;;;;;;;6.70;3.72;;;12.60;66.60;;;;;;5016862;28;20045;-61
2021/05/04 03:12:05;;;;;;;5.88;3.50;;;12.60;66.60;;;;;;5015047;28;20329;-61
2021/05/04 03:14:30;;;;;;;6.10;3.30;;;12.60;66.60;;;;;;5032966;28;20037;-61
2021/05/04 03:16:56;;;;;;;5.65;3.90;;;12.60;66.60;;;;;;5017571;28;20048;-61
2021/05/04 03:19:21;;;;;;;6.05;3.65;;;12.50;66.80;;;;;;5017948;28;20101;-61
2021/05/04 03:21:47;;;;;;;6.32;3.40;;;12.50;66.70;;;;;;5018359;28;20053;-62
2021/05/04 03:24:12;;;;;;;5.10;3.60;;;12.60;66.70;;;;;;5012342;28;20141;-61
2021/05/04 03:26:38;;;;;;;4.35;3.40;;;12.50;66.70;;;;;;5017636;28;20116;-61
2021/05/04 03:29:04;;;;;;;6.72;3.80;;;12.50;66.80;;;;;;5011182;28;20195;-60
2021/05/04 03:31:29;;;;;;;5.35;3.55;;;12.50;66.70;;;;;;5018902;28;20107;-61
2021/05/04 03:33:55;;;;;;;4.63;3.63;;;12.50;66.80;;;;;;5015990;28;20068;-63
2021/05/04 03:36:20;;;;;;;6.35;3.70;;;12.50;67.10;;;;;;5011310;28;20037;-62
2021/05/04 03:38:46;;;;;;;5.40;3.53;;;12.40;66.90;;;;;;5017240;28;20025;-62
2021/05/04 03:41:11;;;;;;;8.00;3.90;;;12.60;66.90;;;;;;5015803;28;20401;-61
2021/05/04 03:43:37;;;;;;;8.35;3.50;;;12.40;66.90;;;;;;5018914;28;20508;-62
2021/05/04 03:46:02;;;;;;;6.80;4.65;;;12.40;66.90;;;;;;5014433;28;20144;-61
2021/05/04 03:48:28;;;;;;;7.63;4.28;;;12.40;66.90;;;;;;4983204;28;567211;-61
2021/05/04 03:50:53;;;;;;;6.63;3.90;;;12.40;67.00;;;;;;5018039;28;20104;-60
2021/05/04 03:53:19;;;;;;;4.35;3.80;;;12.30;66.90;;;;;;5015781;28;20120;-60
2021/05/04 03:55:45;;;;;;;9.38;4.65;;;12.40;67.00;;;;;;5017581;28;20108;-60
2021/05/04 03:58:11;;;;;;;4.63;4.00;;;12.30;67.10;;;;;;5016563;28;20109;-60
2021/05/04 04:00:36;;;;;;;6.97;4.45;;;12.30;67.10;;;;;;5015189;28;20244;-60
2021/05/04 04:03:02;;;;;;;7.63;4.32;;;12.30;67.10;;;;;;5017577;28;20378;-61
2021/05/04 04:05:27;;;;;;;5.50;4.70;;;12.30;67.20;;;;;;5015347;28;20541;-61
2021/05/04 04:07:53;;;;;;;24.60;6.05;;;12.20;67.20;;;;;;5019470;28;20041;-62
2021/05/04 04:10:18;;;;;;;123.13;13.95;;;12.30;67.30;;;;;;5009453;28;20396;-62
2021/05/04 04:12:44;;;;;;;59.30;8.75;;;12.20;67.20;;;;;;5016065;28;20057;-60
2021/05/04 04:15:10;;;;;;;34.08;7.93;;;12.20;67.30;;;;;;5017211;28;20041;-61
2021/05/04 04:17:35;;;;;;;43.80;7.82;;;12.20;67.40;;;;;;5019156;28;20117;-60
2021/05/04 04:20:01;;;;;;;34.92;8.02;;;12.20;67.40;;;;;;5020105;28;20022;-60
2021/05/04 04:22:27;;;;;;;39.03;8.85;;;12.10;67.30;;;;;;5019693;28;20033;-61
2021/05/04 04:24:55;;;;;;;52.85;9.25;;;12.10;67.40;;;;;;5021265;28;20131;-60
2021/05/04 04:27:21;;;;;;;49.63;9.13;;;12.10;67.50;;;;;;5020335;28;20046;-61
2021/05/04 04:29:47;;;;;;;46.17;8.55;;;12.10;67.60;;;;;;5037318;28;20036;-61
2021/05/04 04:32:13;;;;;;;102.88;10.68;;;12.10;67.50;;;;;;5020308;28;20025;-61
2021/05/04 04:34:39;;;;;;;95.22;10.13;;;12.10;67.60;;;;;;5019261;28;20037;-60
2021/05/04 04:37:04;;;;;;;355.23;31.30;;;12.10;67.50;;;;;;5020692;28;20033;-60
2021/05/04 04:39:30;;;;;;;355.55;29.08;;;12.10;67.70;;;;;;5019492;28;20193;-61
2021/05/04 04:41:55;;;;;;;278.05;23.23;;;12.10;67.70;;;;;;5019161;28;20515;-61
2021/05/04 04:44:21;;;;;;;280.90;23.92;;;12.10;67.90;;;;;;5022456;28;20381;-60
2021/05/04 04:46:46;;;;;;;280.98;27.65;;;12.00;68.10;;;;;;5022884;28;20496;-61
2021/05/04 04:49:16;;;;;;;253.88;22.52;;;12.00;68.10;;;;;;5025448;28;20497;-60
2021/05/04 04:51:43;;;;;;;256.58;23.35;;;12.00;68.10;;;;;;5021025;28;20037;-62
2021/05/04 04:54:08;;;;;;;305.98;28.00;;;12.00;68.10;;;;;;5018089;28;20537;-60
2021/05/04 04:56:34;;;;;;;345.65;28.00;;;12.00;68.30;;;;;;5023888;28;20095;-61
2021/05/04 04:59:00;;;;;;;286.65;25.33;;;12.00;68.30;;;;;;5024197;28;20163;-61
2021/05/04 05:01:25;;;;;;;234.45;21.35;;;12.00;68.30;;;;;;5021773;28;20035;-61
2021/05/04 05:03:51;;;;;;;238.82;19.90;;;12.00;68.30;;;;;;5024967;28;20025;-61
2021/05/04 05:06:17;;;;;;;191.27;20.02;;;12.10;68.40;;;;;;5022671;28;20405;-61
2021/05/04 05:08:42;;;;;;;225.45;19.15;;;12.00;68.20;;;;;;5009085;28;20072;-62
2021/05/04 05:11:08;;;;;;;169.25;21.63;;;12.00;68.20;;;;;;5024282;28;20040;-60
2021/05/04 05:13:33;;;;;;;168.50;20.05;;;12.00;68.10;;;;;;5025245;28;20053;-61
2021/05/04 05:15:59;;;;;;;182.90;19.38;;;12.10;68.30;;;;;;5023819;28;20196;-61
2021/05/04 05:18:24;;;;;;;213.35;19.23;;;12.00;68.20;;;;;;5023977;28;20104;-60
2021/05/04 05:20:50;;;;;;;176.80;16.98;;;12.00;68.30;;;;;;5023948;28;20120;-60
2021/05/04 05:23:16;;;;;;;170.35;18.73;;;12.00;68.30;;;;;;5023151;28;20029;-61
2021/05/04 05:25:42;;;;;;;145.00;17.25;;;12.00;68.40;;;;;;5022714;28;20060;-62
2021/05/04 05:28:07;;;;;;;141.45;16.02;;;12.00;68.50;;;;;;5008080;28;20033;-60
2021/05/04 05:30:33;;;;;;;152.95;16.13;;;12.00;68.70;;;;;;5021993;28;20117;-61
2021/05/04 05:32:59;;;;;;;122.70;15.25;;;12.00;68.60;;;;;;5023733;28;20393;-62
2021/05/04 05:35:24;;;;;;;133.18;16.20;;;12.10;68.60;;;;;;5018013;28;20029;-61
2021/05/04 05:37:50;;;;;;;137.48;15.90;;;12.10;68.60;;;;;;5014946;28;20461;-62
2021/05/04 05:40:16;;;;;;;119.55;15.40;;;12.10;68.80;;;;;;5023338;28;20034;-63
2021/05/04 05:42:41;;;;;;;147.27;16.42;;;12.00;68.60;;;;;;5018845;28;20528;-62
2021/05/04 05:45:07;;;;;;;139.77;16.48;;;12.10;68.70;;;;;;5021309;28;20133;-61
2021/05/04 05:47:33;;;;;;;117.95;14.73;;;12.10;68.90;;;;;;5022710;28;20046;-62
2021/05/04 05:49:58;;;;;;;77.65;11.88;;;12.10;69.00;;;;;;5022549;28;20036;-61
2021/05/04 05:52:24;;;;;;;82.22;12.70;;;12.10;68.90;;;;;;5025619;28;20076;-60
2021/05/04 05:54:49;;;;;;;112.72;13.23;;;12.10;68.90;;;;;;5023322;28;20509;-62
2021/05/04 05:57:15;;;;;;;100.88;12.90;;;12.10;68.90;;;;;;5023460;28;20504;-62
2021/05/04 05:59:40;;;;;;;84.38;12.70;;;12.10;68.90;;;;;;5020555;28;20369;-63
2021/05/04 06:02:06;;;;;;;88.28;12.20;;;12.20;68.90;;;;;;5017116;28;20091;-63
2021/05/04 06:04:31;;;;;;;90.20;11.68;;;12.20;68.90;;;;;;5023236;28;20108;-60
2021/05/04 06:06:58;;;;;;;69.30;11.02;;;12.10;68.80;;;;;;5022497;28;20044;-61
2021/05/04 06:09:23;;;;;;;65.50;10.20;;;12.20;68.70;;;;;;5020550;28;20468;-63
2021/05/04 06:11:49;;;;;;;67.82;10.65;;;12.20;68.70;;;;;;5017932;28;20052;-61
2021/05/04 06:14:16;;;;;;;71.65;10.15;;;12.20;68.50;;;;;;5022599;28;20112;-61
2021/05/04 06:16:42;;;;;;;79.65;10.77;;;12.20;68.40;;;;;;5020724;28;20061;-60
2021/05/04 06:19:07;;;;;;;67.70;10.63;;;12.20;68.40;;;;;;5023010;28;20069;-62
2021/05/04 06:21:33;;;;;;;75.75;10.88;;;12.20;68.30;;;;;;5022909;28;20119;-61
2021/05/04 06:23:58;;;;;;;62.40;9.68;;;12.20;68.30;;;;;;5020020;28;20138;-62
2021/05/04 06:26:24;;;;;;;71.70;9.55;;;12.20;68.10;;;;;;5021060;28;20033;-60
2021/05/04 06:28:50;;;;;;;56.30;9.05;;;12.20;68.00;;;;;;5033523;28;20397;-61
2021/05/04 06:31:16;;;;;;;57.42;8.65;;;12.30;67.90;;;;;;5019308;28;20029;-61
2021/05/04 06:33:42;;;;;;;56.72;9.57;;;12.30;67.70;;;;;;5021212;28;20417;-60
2021/05/04 06:36:08;;;;;;;57.38;8.20;;;12.30;67.70;;;;;;5007445;28;20057;-61
2021/05/04 06:38:34;;;;;;;64.90;11.35;;;12.30;67.60;;;;;;5034062;28;20041;-61
2021/05/04 06:40:59;;;;;;;66.93;10.85;;;12.30;67.60;;;;;;5019882;28;20037;-61
2021/05/04 06:43:26;;;;;;;38.60;7.85;;;12.40;67.50;;;;;;5017104;28;20080;-62
2021/05/04 06:45:52;;;;;;;115.50;16.55;;;12.40;67.30;;;;;;5019435;28;20369;-60
2021/05/04 06:48:17;;;;;;;89.20;10.73;;;12.40;67.40;;;;;;5018026;28;20052;-61
2021/05/04 06:50:43;;;;;;;103.05;13.93;;;12.40;67.40;;;;;;5018537;28;20406;-61
2021/05/04 06:53:08;;;;;;;76.70;8.77;;;12.50;67.20;;;;;;5016990;28;20042;-62
2021/05/04 06:55:34;;;;;;;56.17;8.27;;;12.50;67.20;;;;;;5013569;28;20061;-61
2021/05/04 06:57:59;;;;;;;57.53;8.73;;;12.50;66.80;;;;;;5021719;28;20041;-62
2021/05/04 07:00:25;;;;;;;45.38;7.15;;;12.40;66.80;;;;;;5018274;28;20438;-61
2021/05/04 07:02:50;;;;;;;38.17;6.55;;;12.60;66.60;;;;;;5015856;28;20045;-61
2021/05/04 07:05:16;;;;;;;41.60;7.20;;;12.60;66.50;;;;;;5020152;28;20047;-61
2021/05/04 07:07:42;;;;;;;35.47;6.07;;;12.60;66.50;;;;;;5019722;28;20033;-60
2021/05/04 07:10:07;;;;;;;42.80;6.03;;;12.70;66.50;;;;;;5018991;28;20037;-60
2021/05/04 07:12:33;;;;;;;48.70;6.93;;;12.60;66.40;;;;;;5022151;28;20028;-62
2021/05/04 07:14:59;;;;;;;33.45;5.82;;;12.70;66.30;;;;;;5018819;28;20022;-62
2021/05/04 07:17:26;;;;;;;35.40;5.40;;;12.70;66.10;;;;;;5003969;28;20052;-61
2021/05/04 07:19:54;;;;;;;35.67;5.82;;;12.80;66.30;;;;;;5018488;28;20343;-62
2021/05/04 07:22:22;;;;;;;34.75;5.43;;;12.80;66.20;;;;;;5020580;28;20036;-62
2021/05/04 07:24:47;;;;;;;23.20;4.60;;;12.80;66.30;;;;;;5033013;28;20408;-60
2021/05/04 07:27:13;;;;;;;21.80;4.20;;;12.90;66.20;;;;;;5019788;28;20112;-61
2021/05/04 07:29:39;;;;;;;53.60;7.63;;;12.90;66.10;;;;;;5018679;28;20044;-62
2021/05/04 07:32:04;;;;;;;27.60;4.78;;;12.90;66.20;;;;;;5019314;28;20460;-61
2021/05/04 07:34:30;;;;;;;27.50;4.10;;;12.90;66.10;;;;;;5018861;28;20041;-60
2021/05/04 07:36:56;;;;;;;27.88;4.05;;;12.90;66.00;;;;;;5021411;28;20032;-61
2021/05/04 07:39:21;;;;;;;17.92;4.53;;;13.00;65.90;;;;;;5036180;28;20064;-61
2021/05/04 07:41:47;;;;;;;22.80;3.53;;;13.00;65.90;;;;;;5020441;28;20025;-62
2021/05/04 07:44:12;;;;;;;29.42;5.32;;;13.00;66.10;;;;;;5019446;28;20432;-61
2021/05/04 07:46:38;;;;;;;131.13;13.50;;;13.10;66.20;;;;;;5020788;28;20539;-61
2021/05/04 07:49:06;;;;;;;45.97;5.40;;;13.10;66.40;;;;;;5022445;28;20808;-61
2021/05/04 07:51:31;;;;;;;137.18;14.27;;;13.20;66.40;;;;;;5018912;28;20021;-63
2021/05/04 07:53:57;;;;;;;41.33;6.22;;;13.10;66.40;;;;;;5018325;28;20500;-63
2021/05/04 07:56:22;;;;;;;31.30;4.80;;;13.10;66.30;;;;;;5020766;28;20048;-62
2021/05/04 07:58:48;;;;;;;51.88;6.70;;;13.20;66.00;;;;;;5018924;28;20045;-60
2021/05/04 08:01:13;;;;;;;84.32;8.82;;;13.20;65.90;;;;;;5009446;28;20034;-60
2021/05/04 08:03:39;;;;;;;45.50;5.03;;;13.30;65.80;;;;;;5017438;28;20061;-60
2021/05/04 08:06:05;;;;;;;22.50;4.00;;;13.30;65.80;;;;;;5020465;28;20248;-61
2021/05/04 08:08:30;;;;;;;30.45;3.60;;;13.30;65.80;;;;;;5019329;28;20071;-61
2021/05/04 08:10:56;;;;;;;26.00;3.95;;;13.40;65.60;;;;;;5018248;28;20119;-61
2021/05/04 08:13:22;;;;;;;26.70;3.17;;;13.40;65.20;;;;;;5020384;28;20551;-60
2021/05/04 08:15:49;;;;;;;12.77;3.50;;;13.40;65.20;;;;;;5017826;28;20036;-61
2021/05/04 08:18:16;;;;;;;21.95;2.63;;;13.50;65.20;;;;;;5018657;28;20026;-61
2021/05/04 08:20:53;;;;;;;37.05;5.85;;;13.50;64.90;;;;;;5020066;28;20025;-63
2021/05/04 08:23:21;;;;;;;20.15;3.60;;;13.50;64.80;;;;;;5020261;28;20057;-62
2021/05/04 08:25:47;;;;;;;20.00;4.05;;;13.50;64.70;;;;;;5024566;28;20022;-61
2021/05/04 08:28:12;;;;;;;11.95;2.60;;;13.60;64.40;;;;;;5021335;28;20480;-62
2021/05/04 08:30:38;;;;;;;10.30;2.90;;;13.60;64.30;;;;;;5025311;28;20037;-61
2021/05/04 08:33:03;;;;;;;13.82;3.15;;;13.60;64.40;;;;;;5024076;28;20026;-62
2021/05/04 08:35:29;;;;;;;8.32;2.70;;;13.70;63.80;;;;;;5023646;28;20042;-61
2021/05/04 08:37:55;;;;;;;15.27;2.88;;;13.70;63.70;;;;;;5023435;28;20029;-62
2021/05/04 08:40:21;;;;;;;20.63;2.85;;;13.70;63.30;;;;;;5023455;28;20057;-62
2021/05/04 08:42:46;;;;;;;6.72;2.00;;;13.90;63.80;;;;;;5020677;28;20100;-60
2021/05/04 08:45:12;;;;;;;12.65;2.90;;;13.80;63.30;;;;;;5002300;28;20041;-61
2021/05/04 08:47:38;;;;;;;20.08;3.25;;;13.80;63.40;;;;;;5024218;28;20069;-61
2021/05/04 08:50:03;;;;;;;6.75;2.33;;;13.80;63.30;;;;;;5021666;28;20120;-61
2021/05/04 08:52:29;;;;;;;21.77;3.35;;;13.90;62.90;;;;;;5024037;28;20112;-60
2021/05/04 08:54:54;;;;;;;13.23;3.45;;;13.90;62.90;;;;;;5024099;28;20061;-60
2021/05/04 08:57:20;;;;;;;20.35;2.65;;;13.90;62.60;;;;;;5026204;28;20025;-62
2021/05/04 08:59:45;;;;;;;11.80;3.30;;;14.00;62.80;;;;;;5022526;28;20033;-62
2021/05/04 09:02:11;;;;;;;17.30;3.40;;;14.00;62.60;;;;;;5022655;28;20069;-61
2021/05/04 09:04:47;;;;;;;16.92;2.67;;;14.10;62.30;;;;;;5023706;28;20068;-62
2021/05/04 09:07:20;;;;;;;16.33;2.65;;;14.10;62.40;;;;;;5022488;28;20091;-61
2021/05/04 09:10:54;;;;;;;16.90;3.53;;;14.10;62.20;;;;;;5039075;28;20029;-61
2021/05/04 09:13:10;;;;;;;8.38;3.38;;;14.20;62.40;;;;;;5019118;28;20041;-60
2021/05/04 09:21:07;;;;;;;9.88;2.20;;;14.30;62.10;;;;;;5022142;28;20041;-61
2021/05/04 09:23:32;;;;;;;8.63;2.00;;;14.30;62.10;;;;;;5024419;28;20047;-61
2021/05/04 09:25:59;;;;;;;18.95;3.22;;;14.40;61.90;;;;;;5022647;28;20527;-62
2021/05/04 09:28:24;;;;;;;12.38;2.78;;;14.40;61.40;;;;;;5018683;28;20091;-60
2021/05/04 09:30:55;;;;;;;13.90;2.80;;;14.50;61.20;;;;;;5033833;28;20037;-61
2021/05/04 09:33:21;;;;;;;10.77;2.13;;;14.60;61.20;;;;;;5022697;28;20079;-61
2021/05/04 09:35:46;;;;;;;12.77;2.35;;;14.70;61.10;;;;;;5035319;28;20432;-60
2021/05/04 09:38:13;;;;;;;15.07;2.25;;;14.70;60.50;;;;;;5009947;28;20478;-61
2021/05/04 09:40:43;;;;;;;7.72;1.77;;;14.80;60.30;;;;;;5029677;28;20493;-60
2021/05/04 09:43:14;;;;;;;14.02;2.17;;;14.80;59.10;;;;;;5022895;28;20037;-61
2021/05/04 09:45:44;;;;;;;12.30;2.55;;;14.90;58.60;;;;;;5019229;28;20037;-60
2021/05/04 09:48:21;;;;;;;13.20;2.25;;;15.00;58.00;;;;;;5022607;28;20053;-62
2021/05/04 09:51:05;;;;;;;8.02;2.08;;;15.00;57.80;;;;;;5020573;28;20599;-60
2021/05/04 09:54:10;;;;;;;6.35;1.95;;;15.10;57.80;;;;;;5034096;28;20022;-61
2021/05/04 09:56:31;;;;;;;18.42;2.08;;;15.20;57.30;;;;;;5019382;28;20084;-61
2021/05/04 09:58:57;;;;;;;10.93;1.80;;;15.20;57.30;;;;;;5021935;28;20032;-61
2021/05/04 10:01:22;;;;;;;14.88;1.90;;;15.30;57.00;;;;;;5017789;28;20045;-60
2021/05/04 10:03:48;;;;;;;12.98;2.33;;;15.30;56.80;;;;;;5022384;28;20038;-60
2021/05/04 10:06:15;;;;;;;13.50;2.10;;;15.30;56.80;;;;;;5022122;28;20163;-62
2021/05/04 10:08:41;;;;;;;64.95;4.25;;;15.40;57.30;;;;;;5037665;28;20080;-59
2021/05/04 10:11:08;;;;;;;37.13;4.78;;;15.30;56.30;;;;;;5015252;28;20037;-61
2021/05/04 10:13:36;;;;;;;13.57;3.13;;;15.50;56.30;;;;;;5003469;28;20056;-60
2021/05/04 10:16:02;;;;;;;12.10;2.10;;;15.50;56.30;;;;;;5022596;28;20611;-60
2021/05/04 10:18:27;;;;;;;8.77;1.88;;;15.60;56.80;;;;;;5019977;28;20120;-60
2021/05/04 10:20:54;;;;;;;18.55;2.30;;;15.60;56.30;;;;;;5021360;28;20120;-61
2021/05/04 10:23:21;;;;;;;22.30;2.35;;;15.70;56.20;;;;;;5020752;28;20037;-60
2021/05/04 10:25:49;;;;;;;24.33;2.85;;;15.70;55.90;;;;;;5018873;28;20036;-60
2021/05/04 10:28:14;;;;;;;8.48;2.78;;;15.80;56.10;;;;;;5037853;28;20033;-62
2021/05/04 10:30:40;;;;;;;27.48;2.15;;;15.80;55.60;;;;;;5022888;28;20519;-61
2021/05/04 10:33:10;;;;;;;17.92;3.55;;;15.90;55.30;;;;;;5019596;28;20065;-60
2021/05/04 10:35:37;;;;;;;22.02;2.92;;;15.90;55.10;;;;;;5019862;28;20064;-60
2021/05/04 10:38:08;;;;;;;27.90;3.35;;;16.00;55.40;;;;;;5020138;28;20152;-61
2021/05/04 10:40:35;;;;;;;10.15;2.03;;;16.10;55.70;;;;;;5021204;28;20305;-60
2021/05/04 10:43:02;;;;;;;24.52;2.80;;;16.20;55.80;;;;;;5019844;28;20117;-60
2021/05/04 10:45:40;;;;;;;23.50;3.50;;;16.30;55.70;;;;;;5020500;28;20033;-59
2021/05/04 10:48:06;;;;;;;18.17;2.25;;;16.30;55.40;;;;;;5019992;28;20049;-61
2021/05/04 10:50:48;;;;;;;18.17;2.90;;;16.40;55.30;;;;;;5021273;28;20032;-61
2021/05/04 10:53:14;;;;;;;28.38;2.83;;;16.50;55.10;;;;;;5022623;28;20218;-61
2021/05/04 10:55:52;;;;;;;31.23;3.50;;;16.50;54.70;;;;;;5019477;28;20048;-60
2021/05/04 10:58:18;;;;;;;22.10;2.70;;;16.60;54.60;;;;;;5017570;28;20442;-62
2021/05/04 11:01:00;;;;;;;26.23;3.10;;;16.60;54.30;;;;;;5020343;28;20026;-60
2021/05/04 11:03:29;;;;;;;24.35;3.20;;;16.70;54.30;;;;;;5034591;28;20056;-60
2021/05/04 11:05:55;;;;;;;23.60;4.13;;;16.70;54.50;;;;;;5017795;28;20029;-60
2021/05/04 11:08:21;;;;;;;18.88;3.40;;;16.80;54.50;;;;;;5019569;28;20029;-60
2021/05/04 11:11:21;;;;;;;19.70;2.97;;;16.80;54.30;;;;;;5029917;28;20681;-61
2021/05/04 11:13:50;;;;;;;30.40;3.28;;;16.90;54.40;;;;;;5003186;28;20054;-62
2021/05/04 11:16:45;;;;;;;35.50;4.47;;;16.90;54.20;;;;;;5018210;28;20029;-61
2021/05/04 11:19:18;;;;;;;22.08;3.70;;;17.00;54.30;;;;;;5019442;28;20116;-60
2021/05/04 11:21:53;;;;;;;20.35;2.85;;;17.10;54.40;;;;;;5036888;28;20105;-62
2021/05/04 11:24:19;;;;;;;18.23;3.03;;;17.20;54.40;;;;;;5018053;28;20036;-61
2021/05/04 11:27:00;;;;;;;15.02;2.95;;;17.20;54.50;;;;;;5018300;28;20477;-62
2021/05/04 11:29:32;;;;;;;36.28;4.05;;;17.30;54.50;;;;;;5015126;28;20112;-62
2021/05/04 11:32:16;;;;;;;28.77;2.95;;;17.30;54.10;;;;;;5017269;28;20041;-62
2021/05/04 11:34:50;;;;;;;23.48;3.17;;;17.40;54.10;;;;;;5019380;28;20041;-61
2021/05/04 11:37:19;;;;;;;13.73;2.78;;;17.50;53.90;;;;;;5019583;28;20026;-62
2021/05/04 11:39:51;;;;;;;17.08;2.22;;;17.60;53.90;;;;;;5012405;28;20124;-61
2021/05/04 11:42:18;;;;;;;16.55;2.75;;;17.70;53.80;;;;;;5012453;28;20034;-61
2021/05/04 11:44:45;;;;;;;32.53;3.63;;;17.80;53.60;;;;;;5015574;28;20059;-62
2021/05/04 11:47:21;;;;;;;35.63;4.05;;;17.80;53.30;;;;;;5035974;28;20042;-61
2021/05/04 11:49:47;;;;;;;58.63;6.28;;;17.80;53.90;;;;;;5018924;28;20539;-61
2021/05/04 11:52:16;;;;;;;20.25;3.10;;;17.90;53.80;;;;;;5016276;28;20034;-61
2021/05/04 11:54:41;;;;;;;24.40;3.30;;;18.00;53.30;;;;;;5018175;28;20432;-62
2021/05/04 11:57:07;;;;;;;112.80;11.55;;;18.00;52.60;;;;;;5018133;28;20033;-61
2021/05/04 11:59:33;;;;;;;29.75;3.72;;;18.00;53.10;;;;;;5018123;28;20034;-60
2021/05/04 12:01:58;;;;;;;26.48;3.20;;;18.10;52.70;;;;;;5022116;28;20035;-62
2021/05/04 12:04:50;;;;;;;59.22;5.68;;;18.10;52.90;;;;;;5024093;28;20121;-60
2021/05/04 12:07:46;;;;;;;47.67;4.35;;;18.10;52.90;;;;;;5009264;28;20131;-61
2021/05/04 12:10:23;;;;;;;34.03;4.18;;;18.10;52.80;;;;;;5024486;28;20560;-61
2021/05/04 12:12:53;;;;;;;28.23;3.05;;;18.10;53.00;;;;;;5021231;28;20075;-61
2021/05/04 12:15:20;;;;;;;24.13;3.33;;;18.20;52.80;;;;;;5020857;28;20025;-61
2021/05/04 12:18:18;;;;;;;26.13;2.60;;;18.10;52.50;;;;;;5022082;28;20086;-61
2021/05/04 12:20:45;;;;;;;24.58;2.92;;;18.10;52.00;;;;;;5023885;28;20091;-60
2021/05/04 12:23:23;;;;;;;26.55;2.83;;;18.20;52.10;;;;;;5036001;28;20574;-61
2021/05/04 12:25:57;;;;;;;39.45;3.85;;;18.30;52.50;;;;;;5017114;28;20128;-62
2021/05/04 12:28:25;;;;;;;22.77;3.10;;;18.30;52.10;;;;;;5032490;28;20033;-61
2021/05/04 12:30:53;;;;;;;33.72;3.92;;;18.30;52.00;;;;;;5002815;28;20033;-61
2021/05/04 12:33:20;;;;;;;26.55;3.50;;;18.40;52.40;;;;;;5021284;28;20029;-61
2021/05/04 12:35:56;;;;;;;22.15;3.58;;;18.40;52.20;;;;;;5019811;28;20049;-60
2021/05/04 12:38:24;;;;;;;30.50;2.80;;;18.50;52.10;;;;;;5038443;28;20610;-61
2021/05/04 12:40:54;;;;;;;29.70;3.65;;;18.50;52.10;;;;;;5022688;28;20032;-61
2021/05/04 12:43:23;;;;;;;18.65;3.03;;;18.50;52.00;;;;;;5034931;28;20033;-60
2021/05/04 12:46:03;;;;;;;35.17;3.58;;;18.60;51.70;;;;;;5022327;28;20041;-61